Погода Гирикина неделю

Гродненская область, Белоруссия

19 - 25 июля
  • 19июля
    Сегодня
    +13°
    +25°
    Ясно и безоблачно
    ВремяПогодаТемператураВлажностьДавлениеВетер, м/сВероятность осадков
    00:00Ясно и безоблачно+19°C71 %752 мм2.7 м/с2 %
    03:00Облачно с прояснениями+17°C80 %752 мм3.0 м/с2 %
    06:00Облачно с прояснениями+15°C89 %752 мм2.9 м/с2 %
    09:00Практически безоблачно+18°C73 %752 мм3.9 м/с2 %
    12:00Ясно и безоблачно+21°C63 %751 мм3.6 м/с2 %
    15:00Ясно и безоблачно+23°C52 %751 мм4.1 м/с2 %
    18:00Практически безоблачно+25°C45 %749 мм4.0 м/с2 %
    21:00Ясно и безоблачно+21°C60 %749 мм2.1 м/с2 %
  • 20июля
    Суббота
    +15°
    +25°
    Облачно с прояснениями
    ВремяПогодаТемператураВлажностьДавлениеВетер, м/сВероятность осадков
    00:00Ясно и безоблачно+17°C65 %749 мм3.0 м/с2 %
    03:00Ясно и безоблачно+14°C79 %749 мм2.3 м/с2 %
    06:00Ясно и безоблачно+13°C88 %748 мм2.0 м/с2 %
    09:00Ясно и безоблачно+17°C78 %748 мм2.2 м/с2 %
    12:00Небольшая облачность+22°C56 %748 мм2.0 м/с1 %
    15:00Облачно с прояснениями+24°C46 %747 мм2.4 м/с2 %
    18:00Облачно с прояснениями+25°C44 %746 мм2.5 м/с2 %
    21:00Небольшая облачность+22°C68 %746 мм1.7 м/с2 %
  • 21июля
    Воскресенье
    +15°
    +26°
    Практически безоблачно
    ВремяПогодаТемператураВлажностьДавлениеВетер, м/сВероятность осадков
    00:00Практически безоблачно+18°C75 %746 мм1.5 м/с2 %
    03:00Ясно и безоблачно+16°C79 %745 мм2.0 м/с2 %
    06:00Ясно и безоблачно+16°C82 %745 мм0.7 м/с2 %
    09:00Ясно и безоблачно+21°C65 %745 мм1.5 м/с2 %
    12:00Небольшая облачность+24°C47 %745 мм2.3 м/с13 %
    15:00Практически безоблачно+25°C42 %744 мм2.0 м/с47 %
    18:00Практически безоблачно+25°C44 %744 мм2.1 м/с30 %
    21:00Практически безоблачно+23°C65 %744 мм1.4 м/с8 %
  • 22июля
    Понедельник
    +16°
    +28°
    Ясно и безоблачно
    ВремяПогодаТемператураВлажностьДавлениеВетер, м/сВероятность осадков
    00:00Практически безоблачно+20°C69 %744 мм1.1 м/с2 %
    03:00Ясно и безоблачно+17°C82 %744 мм1.5 м/с2 %
    06:00Ясно и безоблачно+16°C84 %744 мм1.8 м/с2 %
    09:00Практически безоблачно+22°C68 %745 мм0.7 м/с2 %
    12:00Ясно и безоблачно+25°C48 %745 мм1.4 м/с5 %
    15:00Ясно и безоблачно+27°C46 %745 мм1.5 м/с16 %
    18:00Практически безоблачно+28°C44 %744 мм0.8 м/с20 %
    21:00Практически безоблачно+25°C69 %745 мм0.9 м/с13 %
  • 23июля
    Вторник
    +17°
    +27°
    Облачно с прояснениями
    ВремяПогодаТемператураВлажностьДавлениеВетер, м/сВероятность осадков
    00:00Ясно и безоблачно+21°C72 %745 мм2.2 м/с4 %
    03:00Ясно и безоблачно+18°C83 %745 мм1.9 м/с9 %
    06:00Ясно и безоблачно+17°C89 %745 мм1.5 м/с11 %
    09:00Ясно и безоблачно+22°C66 %745 мм0.8 м/с18 %
    12:00Практически безоблачно+25°C39 %745 мм0.6 м/с33 %
    15:00Облачно с прояснениями+27°C38 %744 мм0.2 м/с38 %
    18:00Облачно с прояснениями, небольшой дождь+25°C58 %745 мм5.9 м/с34 %
    21:00Облачно с прояснениями+23°C79 %745 мм1.0 м/с25 %
Мы используем cookies
Соглашаюсь